Time,TemperatureF,DewpointF,PressureIn,WindDirection,WindDirectionDegrees,WindSpeedMPH,WindSpeedGustMPH,Humidity,HourlyPrecipIn,Conditions,Clouds,dailyrainin,SoftwareType,DateUTC
2014-04-20 00:03:00,-999.0,-99.9,30.24,NE,38,4.0,7.0,-999,0.00,,,0.00,,2014-04-20 04:03:00,
2014-04-20 00:23:00,48.0,38.0,30.24,ENE,57,6.0,10.0,68,0.00,,,0.00,,2014-04-20 04:23:00,
2014-04-20 00:54:00,47.0,38.0,30.24,NE,41,5.0,7.0,72,0.00,,,0.00,,2014-04-20 04:54:00,
2014-04-20 01:23:00,46.0,38.0,30.24,NE,41,5.0,6.0,73,0.00,,,0.00,,2014-04-20 05:23:00,
2014-04-20 01:53:00,44.0,37.0,30.25,NE,41,2.0,3.0,76,0.00,,,0.00,,2014-04-20 05:53:00,
2014-04-20 02:22:00,43.0,37.0,30.23,NE,41,1.0,3.0,78,0.00,,,0.00,,2014-04-20 06:22:00,
2014-04-20 02:52:00,42.0,36.0,30.23,NE,41,1.0,3.0,79,0.00,,,0.00,,2014-04-20 06:52:00,
2014-04-20 03:22:00,42.0,36.0,30.23,NE,42,3.0,3.0,80,0.00,,,0.00,,2014-04-20 07:22:00,
2014-04-20 03:52:00,42.0,37.0,30.23,NE,43,0.0,0.0,81,0.00,,,0.00,,2014-04-20 07:52:00,
2014-04-20 04:22:00,41.0,36.0,30.23,NE,44,2.0,3.0,81,0.00,,,0.00,,2014-04-20 08:22:00,
2014-04-20 04:52:00,41.0,36.0,30.24,NE,44,2.0,3.0,82,0.00,,,0.00,,2014-04-20 08:52:00,
2014-04-20 05:22:00,40.0,35.0,30.24,NE,44,2.0,3.0,83,0.00,,,0.00,,2014-04-20 09:22:00,
2014-04-20 05:54:00,41.0,36.0,30.24,NE,44,1.0,3.0,82,0.00,,,0.00,,2014-04-20 09:54:00,
2014-04-20 06:23:00,41.0,36.0,30.25,NE,45,0.0,0.0,82,0.00,,,0.00,,2014-04-20 10:23:00,
2014-04-20 06:53:00,40.0,35.0,30.25,NE,51,2.0,3.0,82,0.00,,,0.00,,2014-04-20 10:53:00,
2014-04-20 07:22:00,40.0,35.0,30.26,ENE,59,2.0,3.0,83,0.00,,,0.00,,2014-04-20 11:22:00,
2014-04-20 07:52:00,40.0,36.0,30.26,ENE,59,3.0,5.0,84,0.00,,,0.00,,2014-04-20 11:52:00,
2014-04-20 08:22:00,43.0,38.0,30.26,ENE,74,2.0,3.0,82,0.00,,,0.00,,2014-04-20 12:22:00,
2014-04-20 08:53:00,47.0,40.0,30.26,ENE,75,4.0,6.0,77,0.00,,,0.00,,2014-04-20 12:53:00,
2014-04-20 09:22:00,50.0,41.0,30.26,East,95,6.0,10.0,71,0.00,,,0.00,,2014-04-20 13:22:00,
2014-04-20 09:52:00,53.0,42.0,30.26,East,88,7.0,12.0,67,0.00,,,0.00,,2014-04-20 13:52:00,
2014-04-20 10:22:00,55.0,41.0,30.26,East,95,5.0,9.0,60,0.00,,,0.00,,2014-04-20 14:22:00,
2014-04-20 10:52:00,58.0,43.0,30.25,SE,126,5.0,9.0,58,0.00,,,0.00,,2014-04-20 14:52:00,
2014-04-20 11:22:00,60.0,44.0,30.26,ESE,107,5.0,9.0,55,0.00,,,0.00,,2014-04-20 15:22:00,
2014-04-20 11:53:00,63.0,44.0,30.24,ESE,105,2.0,3.0,50,0.00,,,0.00,,2014-04-20 15:53:00,
2014-04-20 12:23:00,67.0,44.0,30.23,ESE,123,4.0,9.0,44,0.00,,,0.00,,2014-04-20 16:23:00,
2014-04-20 12:53:00,69.0,44.0,30.22,SSE,154,5.0,9.0,41,0.00,,,0.00,,2014-04-20 16:53:00,
2014-04-20 13:22:00,69.0,45.0,30.22,SE,135,3.0,12.0,42,0.00,,,0.00,,2014-04-20 17:22:00,
2014-04-20 13:53:00,71.0,45.0,30.21,SE,142,5.0,12.0,40,0.00,,,0.00,,2014-04-20 17:53:00,
2014-04-20 16:22:00,74.0,49.0,30.16,South,189,9.0,13.0,42,0.00,,,0.00,,2014-04-20 20:22:00,
2014-04-20 17:22:00,74.0,49.0,30.14,SW,226,5.0,12.0,42,0.00,,,0.00,,2014-04-20 21:22:00,
2014-04-20 18:23:00,74.0,49.0,30.12,SSW,199,3.0,9.0,42,0.00,,,0.00,,2014-04-20 22:23:00,
2014-04-20 18:53:00,74.0,48.0,30.11,WSW,238,1.0,3.0,40,0.00,,,0.00,,2014-04-20 22:53:00,
2014-04-20 20:22:00,69.0,47.0,30.10,SW,227,0.0,0.0,45,0.00,,,0.00,,2014-04-21 00:22:00,
2014-04-20 20:52:00,68.0,46.0,30.10,SW,227,0.0,0.0,46,0.00,,,0.00,,2014-04-21 00:52:00,